sensor_id;sensor_type;location;lat;lon;timestamp;temperature;humidity
21834;DHT22;11079;51.092;3.458;2023-03-12T07:16:55;8.90;99.90
21834;DHT22;11079;51.092;3.458;2023-03-12T07:19:27;9.00;99.90
21834;DHT22;11079;51.092;3.458;2023-03-12T07:22:19;9.00;99.90
21834;DHT22;11079;51.092;3.458;2023-03-12T07:24:45;9.30;99.90
21834;DHT22;11079;51.092;3.458;2023-03-12T07:27:10;9.40;99.90
21834;DHT22;11079;51.092;3.458;2023-03-12T07:29:36;9.50;99.90
21834;DHT22;11079;51.092;3.458;2023-03-12T07:32:02;9.60;99.90
21834;DHT22;11079;51.092;3.458;2023-03-12T07:34:27;9.60;99.90
21834;DHT22;11079;51.092;3.458;2023-03-12T07:36:53;9.70;99.90
21834;DHT22;11079;51.092;3.458;2023-03-12T07:39:22;9.70;99.90
21834;DHT22;11079;51.092;3.458;2023-03-12T07:41:47;9.80;99.90
21834;DHT22;11079;51.092;3.458;2023-03-12T07:44:13;9.90;99.90
21834;DHT22;11079;51.092;3.458;2023-03-12T07:46:39;9.90;99.90
21834;DHT22;11079;51.092;3.458;2023-03-12T07:49:04;10.10;99.90
21834;DHT22;11079;51.092;3.458;2023-03-12T07:51:30;10.00;99.90
21834;DHT22;11079;51.092;3.458;2023-03-12T07:53:56;10.20;99.90
21834;DHT22;11079;51.092;3.458;2023-03-12T07:56:21;10.20;99.90
21834;DHT22;11079;51.092;3.458;2023-03-12T07:58:47;10.30;99.90
21834;DHT22;11079;51.092;3.458;2023-03-12T08:01:13;10.50;99.90
21834;DHT22;11079;51.092;3.458;2023-03-12T08:03:39;10.80;99.90
21834;DHT22;11079;51.092;3.458;2023-03-12T08:06:05;12.10;99.90
21834;DHT22;11079;51.092;3.458;2023-03-12T08:08:30;12.70;99.90
21834;DHT22;11079;51.092;3.458;2023-03-12T08:10:57;12.70;99.90
21834;DHT22;11079;51.092;3.458;2023-03-12T08:13:24;12.50;99.90
21834;DHT22;11079;51.092;3.458;2023-03-12T08:15:51;12.10;99.90
21834;DHT22;11079;51.092;3.458;2023-03-12T08:18:18;11.80;99.90
21834;DHT22;11079;51.092;3.458;2023-03-12T08:20:43;11.80;99.90
21834;DHT22;11079;51.092;3.458;2023-03-12T08:23:10;11.70;99.90
21834;DHT22;11079;51.092;3.458;2023-03-12T08:25:36;11.80;99.90
21834;DHT22;11079;51.092;3.458;2023-03-12T08:28:03;11.70;99.90
21834;DHT22;11079;51.092;3.458;2023-03-12T08:30:29;11.60;99.90
21834;DHT22;11079;51.092;3.458;2023-03-12T08:32:55;11.40;99.90
21834;DHT22;11079;51.092;3.458;2023-03-12T08:35:21;11.30;99.90
21834;DHT22;11079;51.092;3.458;2023-03-12T08:37:47;11.20;99.90
21834;DHT22;11079;51.092;3.458;2023-03-12T08:40:13;11.20;99.90
21834;DHT22;11079;51.092;3.458;2023-03-12T08:42:40;11.20;99.90
21834;DHT22;11079;51.092;3.458;2023-03-12T08:45:06;11.20;99.90
21834;DHT22;11079;51.092;3.458;2023-03-12T08:47:32;11.40;99.90
21834;DHT22;11079;51.092;3.458;2023-03-12T08:49:57;11.60;99.90
21834;DHT22;11079;51.092;3.458;2023-03-12T08:52:24;12.00;99.90
21834;DHT22;11079;51.092;3.458;2023-03-12T08:54:50;13.80;99.90
21834;DHT22;11079;51.092;3.458;2023-03-12T08:57:15;15.70;99.90
21834;DHT22;11079;51.092;3.458;2023-03-12T08:59:41;16.70;99.90
21834;DHT22;11079;51.092;3.458;2023-03-12T09:02:10;17.50;99.90
21834;DHT22;11079;51.092;3.458;2023-03-12T09:04:37;17.70;99.90
21834;DHT22;11079;51.092;3.458;2023-03-12T09:07:03;17.70;99.90
21834;DHT22;11079;51.092;3.458;2023-03-12T09:09:29;16.70;99.90
21834;DHT22;11079;51.092;3.458;2023-03-12T09:11:55;15.80;99.90
21834;DHT22;11079;51.092;3.458;2023-03-12T09:14:20;15.90;99.90
21834;DHT22;11079;51.092;3.458;2023-03-12T09:16:46;15.50;99.90
21834;DHT22;11079;51.092;3.458;2023-03-12T09:19:12;15.10;99.90
21834;DHT22;11079;51.092;3.458;2023-03-12T09:21:38;15.00;99.90
21834;DHT22;11079;51.092;3.458;2023-03-12T09:24:05;14.60;99.90
21834;DHT22;11079;51.092;3.458;2023-03-12T09:26:31;14.60;99.90
21834;DHT22;11079;51.092;3.458;2023-03-12T09:28:56;14.50;99.90
21834;DHT22;11079;51.092;3.458;2023-03-12T09:31:24;14.40;99.90
21834;DHT22;11079;51.092;3.458;2023-03-12T09:33:51;14.40;99.90
21834;DHT22;11079;51.092;3.458;2023-03-12T09:36:17;14.40;99.90
21834;DHT22;11079;51.092;3.458;2023-03-12T09:38:45;14.60;99.90
21834;DHT22;11079;51.092;3.458;2023-03-12T09:41:17;15.60;99.90
21834;DHT22;11079;51.092;3.458;2023-03-12T09:46:40;16.00;99.90
21834;DHT22;11079;51.092;3.458;2023-03-12T09:49:17;16.10;99.90
21834;DHT22;11079;51.092;3.458;2023-03-12T09:51:46;15.80;99.90
21834;DHT22;11079;51.092;3.458;2023-03-12T09:55:13;15.50;99.90
21834;DHT22;11079;51.092;3.458;2023-03-12T10:02:48;14.80;99.90
21834;DHT22;11079;51.092;3.458;2023-03-12T10:11:48;15.40;99.90
21834;DHT22;11079;51.092;3.458;2023-03-12T10:29:32;16.70;99.90
21834;DHT22;11079;51.092;3.458;2023-03-12T10:32:19;17.00;99.90
21834;DHT22;11079;51.092;3.458;2023-03-12T10:37:53;17.10;99.90
21834;DHT22;11079;51.092;3.458;2023-03-12T10:40:55;17.10;99.90
21834;DHT22;11079;51.092;3.458;2023-03-12T10:43:22;16.60;99.90
21834;DHT22;11079;51.092;3.458;2023-03-12T10:45:55;16.50;99.90
21834;DHT22;11079;51.092;3.458;2023-03-12T10:52:18;18.80;99.90
21834;DHT22;11079;51.092;3.458;2023-03-12T10:54:46;18.50;99.90
21834;DHT22;11079;51.092;3.458;2023-03-12T10:57:13;17.70;99.90
21834;DHT22;11079;51.092;3.458;2023-03-12T11:00:17;17.30;99.90
21834;DHT22;11079;51.092;3.458;2023-03-12T11:03:16;17.70;99.90
21834;DHT22;11079;51.092;3.458;2023-03-12T11:05:50;17.20;99.90
21834;DHT22;11079;51.092;3.458;2023-03-12T11:08:27;16.40;99.90
21834;DHT22;11079;51.092;3.458;2023-03-12T11:10:55;16.10;99.90
21834;DHT22;11079;51.092;3.458;2023-03-12T11:13:40;16.30;99.90
21834;DHT22;11079;51.092;3.458;2023-03-12T11:21:29;15.30;99.90
21834;DHT22;11079;51.092;3.458;2023-03-12T11:26:29;14.50;99.90
21834;DHT22;11079;51.092;3.458;2023-03-12T11:32:00;14.00;99.90
21834;DHT22;11079;51.092;3.458;2023-03-12T11:34:30;14.50;99.90
21834;DHT22;11079;51.092;3.458;2023-03-12T11:49:26;15.90;99.90
21834;DHT22;11079;51.092;3.458;2023-03-12T12:00:17;17.10;99.90
21834;DHT22;11079;51.092;3.458;2023-03-12T12:03:26;17.60;99.90
21834;DHT22;11079;51.092;3.458;2023-03-12T12:06:15;18.30;99.90
21834;DHT22;11079;51.092;3.458;2023-03-12T12:09:06;17.60;99.90
21834;DHT22;11079;51.092;3.458;2023-03-12T12:28:20;17.30;99.90
21834;DHT22;11079;51.092;3.458;2023-03-12T12:31:01;16.70;99.90
21834;DHT22;11079;51.092;3.458;2023-03-12T12:36:11;16.10;99.90
21834;DHT22;11079;51.092;3.458;2023-03-12T12:38:38;16.00;99.90
21834;DHT22;11079;51.092;3.458;2023-03-12T12:43:38;16.20;99.90
21834;DHT22;11079;51.092;3.458;2023-03-12T12:46:15;16.10;99.90
21834;DHT22;11079;51.092;3.458;2023-03-12T12:48:51;16.30;99.90
21834;DHT22;11079;51.092;3.458;2023-03-12T12:51:25;16.20;99.90
21834;DHT22;11079;51.092;3.458;2023-03-12T13:02:38;16.50;99.90
21834;DHT22;11079;51.092;3.458;2023-03-12T13:06:02;16.60;99.90
21834;DHT22;11079;51.092;3.458;2023-03-12T13:08:06;16.20;99.90
21834;DHT22;11079;51.092;3.458;2023-03-12T13:13:18;15.90;99.90
21834;DHT22;11079;51.092;3.458;2023-03-12T13:15:45;15.90;99.90
21834;DHT22;11079;51.092;3.458;2023-03-12T13:18:25;15.60;99.90
21834;DHT22;11079;51.092;3.458;2023-03-12T13:31:54;14.90;99.90
21834;DHT22;11079;51.092;3.458;2023-03-12T13:36:49;14.30;99.90
21834;DHT22;11079;51.092;3.458;2023-03-12T13:39:30;14.50;99.90
21834;DHT22;11079;51.092;3.458;2023-03-12T13:42:03;14.50;99.90
21834;DHT22;11079;51.092;3.458;2023-03-12T13:44:44;14.40;99.90
21834;DHT22;11079;51.092;3.458;2023-03-12T13:47:36;14.60;99.90
21834;DHT22;11079;51.092;3.458;2023-03-12T13:50:23;15.00;99.90
21834;DHT22;11079;51.092;3.458;2023-03-12T13:53:24;15.30;99.90
21834;DHT22;11079;51.092;3.458;2023-03-12T13:59:12;15.80;99.90
21834;DHT22;11079;51.092;3.458;2023-03-12T14:01:41;15.90;99.90
21834;DHT22;11079;51.092;3.458;2023-03-12T14:04:16;16.10;99.90
21834;DHT22;11079;51.092;3.458;2023-03-12T14:18:25;14.80;99.90
21834;DHT22;11079;51.092;3.458;2023-03-12T14:20:57;14.60;99.90
21834;DHT22;11079;51.092;3.458;2023-03-12T14:23:32;14.50;99.90
21834;DHT22;11079;51.092;3.458;2023-03-12T14:26:02;14.50;99.90
21834;DHT22;11079;51.092;3.458;2023-03-12T14:28:28;14.40;99.90
21834;DHT22;11079;51.092;3.458;2023-03-12T14:31:02;14.30;99.90
21834;DHT22;11079;51.092;3.458;2023-03-12T14:33:55;14.30;99.90
21834;DHT22;11079;51.092;3.458;2023-03-12T14:36:24;14.20;99.90
21834;DHT22;11079;51.092;3.458;2023-03-12T14:39:00;14.00;99.90
21834;DHT22;11079;51.092;3.458;2023-03-12T14:41:41;14.10;99.90
21834;DHT22;11079;51.092;3.458;2023-03-12T14:44:23;14.10;99.90
21834;DHT22;11079;51.092;3.458;2023-03-12T14:49:37;13.80;99.90
21834;DHT22;11079;51.092;3.458;2023-03-12T14:52:03;13.70;99.90
21834;DHT22;11079;51.092;3.458;2023-03-12T14:54:29;13.70;99.90
21834;DHT22;11079;51.092;3.458;2023-03-12T14:56:54;13.70;99.90
21834;DHT22;11079;51.092;3.458;2023-03-12T15:01:46;13.80;99.90
21834;DHT22;11079;51.092;3.458;2023-03-12T15:04:15;13.80;99.90
21834;DHT22;11079;51.092;3.458;2023-03-12T15:06:46;13.70;99.90
21834;DHT22;11079;51.092;3.458;2023-03-12T15:09:24;13.60;99.90
21834;DHT22;11079;51.092;3.458;2023-03-12T15:11:56;13.70;99.90
21834;DHT22;11079;51.092;3.458;2023-03-12T15:14:23;13.60;99.90
21834;DHT22;11079;51.092;3.458;2023-03-12T15:16:51;13.40;99.90
21834;DHT22;11079;51.092;3.458;2023-03-12T15:19:20;13.30;99.90
21834;DHT22;11079;51.092;3.458;2023-03-12T15:21:48;13.20;99.90
21834;DHT22;11079;51.092;3.458;2023-03-12T15:24:14;13.20;99.90
21834;DHT22;11079;51.092;3.458;2023-03-12T15:26:40;13.20;99.90
21834;DHT22;11079;51.092;3.458;2023-03-12T15:29:27;13.30;99.90
21834;DHT22;11079;51.092;3.458;2023-03-12T15:31:58;13.40;99.90
21834;DHT22;11079;51.092;3.458;2023-03-12T15:34:33;13.30;99.90
21834;DHT22;11079;51.092;3.458;2023-03-12T15:37:01;13.20;99.90
21834;DHT22;11079;51.092;3.458;2023-03-12T15:39:33;13.30;99.90
21834;DHT22;11079;51.092;3.458;2023-03-12T15:42:08;13.30;99.90
21834;DHT22;11079;51.092;3.458;2023-03-12T15:44:52;13.10;99.90
21834;DHT22;11079;51.092;3.458;2023-03-12T15:47:27;12.80;99.90
21834;DHT22;11079;51.092;3.458;2023-03-12T15:50:00;12.70;99.90
21834;DHT22;11079;51.092;3.458;2023-03-12T15:52:34;12.70;99.90
21834;DHT22;11079;51.092;3.458;2023-03-12T15:57:52;12.80;99.90
21834;DHT22;11079;51.092;3.458;2023-03-12T16:00:40;12.70;99.90
21834;DHT22;11079;51.092;3.458;2023-03-12T16:03:15;12.60;99.90
21834;DHT22;11079;51.092;3.458;2023-03-12T16:05:41;12.50;99.90
21834;DHT22;11079;51.092;3.458;2023-03-12T16:10:50;12.60;99.90
21834;DHT22;11079;51.092;3.458;2023-03-12T16:13:18;12.50;99.90
21834;DHT22;11079;51.092;3.458;2023-03-12T16:15:45;12.60;99.90
21834;DHT22;11079;51.092;3.458;2023-03-12T16:18:16;12.60;99.90
21834;DHT22;11079;51.092;3.458;2023-03-12T16:20:42;12.40;99.90
21834;DHT22;11079;51.092;3.458;2023-03-12T16:23:09;12.40;99.90
21834;DHT22;11079;51.092;3.458;2023-03-12T16:25:35;12.50;99.90
21834;DHT22;11079;51.092;3.458;2023-03-12T16:28:03;12.50;99.90
21834;DHT22;11079;51.092;3.458;2023-03-12T16:30:34;12.50;99.90
21834;DHT22;11079;51.092;3.458;2023-03-12T16:33:03;12.50;99.90
21834;DHT22;11079;51.092;3.458;2023-03-12T16:35:29;12.50;99.90
21834;DHT22;11079;51.092;3.458;2023-03-12T16:37:59;12.40;99.90
21834;DHT22;11079;51.092;3.458;2023-03-12T16:40:26;12.30;99.90
21834;DHT22;11079;51.092;3.458;2023-03-12T16:42:55;12.30;99.90
21834;DHT22;11079;51.092;3.458;2023-03-12T16:45:21;12.20;99.90
21834;DHT22;11079;51.092;3.458;2023-03-12T16:47:51;12.40;99.90
21834;DHT22;11079;51.092;3.458;2023-03-12T16:50:20;12.40;99.90
21834;DHT22;11079;51.092;3.458;2023-03-12T16:52:48;12.40;99.90
21834;DHT22;11079;51.092;3.458;2023-03-12T16:55:22;12.40;99.90
21834;DHT22;11079;51.092;3.458;2023-03-12T16:57:53;12.30;99.90
21834;DHT22;11079;51.092;3.458;2023-03-12T17:00:25;12.30;99.90
21834;DHT22;11079;51.092;3.458;2023-03-12T17:02:55;12.30;99.90
21834;DHT22;11079;51.092;3.458;2023-03-12T17:05:30;12.30;99.90
21834;DHT22;11079;51.092;3.458;2023-03-12T17:07:56;12.30;99.90
21834;DHT22;11079;51.092;3.458;2023-03-12T17:10:25;12.30;99.90
21834;DHT22;11079;51.092;3.458;2023-03-12T17:12:52;12.30;99.90
21834;DHT22;11079;51.092;3.458;2023-03-12T17:15:21;12.20;99.90
21834;DHT22;11079;51.092;3.458;2023-03-12T17:17:55;12.10;99.90
21834;DHT22;11079;51.092;3.458;2023-03-12T17:20:22;12.10;99.90
21834;DHT22;11079;51.092;3.458;2023-03-12T17:23:03;12.10;99.90
21834;DHT22;11079;51.092;3.458;2023-03-12T17:25:32;12.00;99.90
21834;DHT22;11079;51.092;3.458;2023-03-12T17:28:01;12.00;99.90
21834;DHT22;11079;51.092;3.458;2023-03-12T17:30:34;12.10;99.90
21834;DHT22;11079;51.092;3.458;2023-03-12T17:33:17;12.00;99.90
21834;DHT22;11079;51.092;3.458;2023-03-12T17:35:43;12.00;99.90
21834;DHT22;11079;51.092;3.458;2023-03-12T17:38:11;12.10;99.90
21834;DHT22;11079;51.092;3.458;2023-03-12T17:40:42;12.20;99.90
21834;DHT22;11079;51.092;3.458;2023-03-12T17:43:08;12.10;99.90
21834;DHT22;11079;51.092;3.458;2023-03-12T17:45:34;12.00;99.90
21834;DHT22;11079;51.092;3.458;2023-03-12T17:48:04;11.90;99.90
21834;DHT22;11079;51.092;3.458;2023-03-12T17:50:33;12.00;99.90
21834;DHT22;11079;51.092;3.458;2023-03-12T17:52:58;12.00;99.90
21834;DHT22;11079;51.092;3.458;2023-03-12T17:55:24;12.00;99.90
21834;DHT22;11079;51.092;3.458;2023-03-12T17:57:49;12.00;99.90
21834;DHT22;11079;51.092;3.458;2023-03-12T18:00:15;12.00;99.90
21834;DHT22;11079;51.092;3.458;2023-03-12T18:02:42;11.90;99.90
21834;DHT22;11079;51.092;3.458;2023-03-12T18:05:09;11.90;99.90
21834;DHT22;11079;51.092;3.458;2023-03-12T18:07:36;11.80;99.90
21834;DHT22;11079;51.092;3.458;2023-03-12T18:10:02;11.80;99.90
21834;DHT22;11079;51.092;3.458;2023-03-12T18:12:28;11.90;99.90
21834;DHT22;11079;51.092;3.458;2023-03-12T18:14:54;11.80;99.90
21834;DHT22;11079;51.092;3.458;2023-03-12T18:17:19;11.60;99.90
21834;DHT22;11079;51.092;3.458;2023-03-12T18:19:45;11.70;99.90
21834;DHT22;11079;51.092;3.458;2023-03-12T18:22:13;11.60;99.90
21834;DHT22;11079;51.092;3.458;2023-03-12T18:24:40;11.70;99.90
21834;DHT22;11079;51.092;3.458;2023-03-12T18:27:06;11.70;99.90
21834;DHT22;11079;51.092;3.458;2023-03-12T18:29:32;11.70;99.90
21834;DHT22;11079;51.092;3.458;2023-03-12T18:32:00;11.60;99.90
21834;DHT22;11079;51.092;3.458;2023-03-12T18:34:25;11.50;99.90
21834;DHT22;11079;51.092;3.458;2023-03-12T18:36:51;11.40;99.90
21834;DHT22;11079;51.092;3.458;2023-03-12T18:39:17;11.40;99.90
21834;DHT22;11079;51.092;3.458;2023-03-12T18:41:42;11.50;99.90
21834;DHT22;11079;51.092;3.458;2023-03-12T18:44:09;11.50;99.90
21834;DHT22;11079;51.092;3.458;2023-03-12T18:46:44;11.40;99.90
21834;DHT22;11079;51.092;3.458;2023-03-12T18:49:10;11.40;99.90
21834;DHT22;11079;51.092;3.458;2023-03-12T18:51:40;11.50;99.90
21834;DHT22;11079;51.092;3.458;2023-03-12T18:54:11;11.40;99.90
21834;DHT22;11079;51.092;3.458;2023-03-12T18:56:39;11.50;99.90
21834;DHT22;11079;51.092;3.458;2023-03-12T18:59:07;11.50;99.90
21834;DHT22;11079;51.092;3.458;2023-03-12T19:01:34;11.60;99.90
21834;DHT22;11079;51.092;3.458;2023-03-12T19:04:02;11.40;99.90
21834;DHT22;11079;51.092;3.458;2023-03-12T19:06:28;11.20;99.90
21834;DHT22;11079;51.092;3.458;2023-03-12T19:08:54;11.30;99.90
21834;DHT22;11079;51.092;3.458;2023-03-12T19:11:22;11.20;99.90
21834;DHT22;11079;51.092;3.458;2023-03-12T19:14:00;11.10;99.90
21834;DHT22;11079;51.092;3.458;2023-03-12T19:16:48;11.10;99.90
21834;DHT22;11079;51.092;3.458;2023-03-12T19:19:19;11.00;99.90
21834;DHT22;11079;51.092;3.458;2023-03-12T19:22:58;11.10;99.90
21834;DHT22;11079;51.092;3.458;2023-03-12T19:25:49;11.20;99.90
21834;DHT22;11079;51.092;3.458;2023-03-12T19:28:17;11.20;99.90
21834;DHT22;11079;51.092;3.458;2023-03-12T19:31:44;11.20;99.90
21834;DHT22;11079;51.092;3.458;2023-03-12T19:37:54;11.10;99.90
21834;DHT22;11079;51.092;3.458;2023-03-12T19:47:21;11.00;99.90
21834;DHT22;11079;51.092;3.458;2023-03-12T19:50:27;11.10;99.90
21834;DHT22;11079;51.092;3.458;2023-03-12T19:53:07;11.10;99.90
21834;DHT22;11079;51.092;3.458;2023-03-12T19:56:11;11.20;99.90
21834;DHT22;11079;51.092;3.458;2023-03-12T20:06:17;11.20;99.90
21834;DHT22;11079;51.092;3.458;2023-03-12T20:09:05;11.30;99.90
21834;DHT22;11079;51.092;3.458;2023-03-12T20:11:59;11.30;99.90
21834;DHT22;11079;51.092;3.458;2023-03-12T20:14:25;11.20;99.90
21834;DHT22;11079;51.092;3.458;2023-03-12T20:16:51;11.20;99.90
21834;DHT22;11079;51.092;3.458;2023-03-12T20:19:16;11.20;99.90
21834;DHT22;11079;51.092;3.458;2023-03-12T20:21:42;11.10;99.90
21834;DHT22;11079;51.092;3.458;2023-03-12T20:24:16;11.20;99.90
21834;DHT22;11079;51.092;3.458;2023-03-12T20:26:54;11.10;99.90
21834;DHT22;11079;51.092;3.458;2023-03-12T20:29:22;11.10;99.90
21834;DHT22;11079;51.092;3.458;2023-03-12T20:32:07;11.30;99.90
21834;DHT22;11079;51.092;3.458;2023-03-12T20:34:48;11.30;99.90
21834;DHT22;11079;51.092;3.458;2023-03-12T20:37:53;11.30;99.90
21834;DHT22;11079;51.092;3.458;2023-03-12T20:43:11;11.50;99.90
21834;DHT22;11079;51.092;3.458;2023-03-12T20:46:00;11.50;99.90
21834;DHT22;11079;51.092;3.458;2023-03-12T20:48:35;11.50;99.90
21834;DHT22;11079;51.092;3.458;2023-03-12T20:51:01;11.60;99.90
21834;DHT22;11079;51.092;3.458;2023-03-12T20:53:38;11.60;99.90
21834;DHT22;11079;51.092;3.458;2023-03-12T20:56:27;11.50;99.90
21834;DHT22;11079;51.092;3.458;2023-03-12T20:59:19;11.50;99.90
21834;DHT22;11079;51.092;3.458;2023-03-12T21:01:45;11.60;99.90
21834;DHT22;11079;51.092;3.458;2023-03-12T21:04:13;11.70;99.90
21834;DHT22;11079;51.092;3.458;2023-03-12T21:06:44;11.70;99.90
21834;DHT22;11079;51.092;3.458;2023-03-12T21:09:17;11.80;99.90
21834;DHT22;11079;51.092;3.458;2023-03-12T21:11:45;11.60;99.90
21834;DHT22;11079;51.092;3.458;2023-03-12T21:14:14;11.60;99.90
21834;DHT22;11079;51.092;3.458;2023-03-12T21:16:40;11.60;99.90
21834;DHT22;11079;51.092;3.458;2023-03-12T21:19:18;11.50;99.90
21834;DHT22;11079;51.092;3.458;2023-03-12T21:21:50;11.50;99.90
21834;DHT22;11079;51.092;3.458;2023-03-12T21:24:35;11.50;99.90
21834;DHT22;11079;51.092;3.458;2023-03-12T21:30:22;11.40;99.90
21834;DHT22;11079;51.092;3.458;2023-03-12T21:33:56;11.40;99.90
21834;DHT22;11079;51.092;3.458;2023-03-12T21:36:41;11.30;99.90
21834;DHT22;11079;51.092;3.458;2023-03-12T21:39:59;11.40;99.90
21834;DHT22;11079;51.092;3.458;2023-03-12T21:51:43;11.10;99.90
21834;DHT22;11079;51.092;3.458;2023-03-12T21:57:11;10.90;99.90
21834;DHT22;11079;51.092;3.458;2023-03-12T21:59:37;10.80;99.90
21834;DHT22;11079;51.092;3.458;2023-03-12T22:02:23;10.90;99.90
21834;DHT22;11079;51.092;3.458;2023-03-12T22:04:50;10.70;99.90
21834;DHT22;11079;51.092;3.458;2023-03-12T22:07:16;10.70;99.90
21834;DHT22;11079;51.092;3.458;2023-03-12T22:09:41;10.70;99.90
21834;DHT22;11079;51.092;3.458;2023-03-12T22:12:07;10.70;99.90
21834;DHT22;11079;51.092;3.458;2023-03-12T22:14:32;10.60;99.90
21834;DHT22;11079;51.092;3.458;2023-03-12T22:16:58;10.70;99.90
21834;DHT22;11079;51.092;3.458;2023-03-12T22:19:30;10.60;99.90
21834;DHT22;11079;51.092;3.458;2023-03-12T22:21:56;10.60;99.90
21834;DHT22;11079;51.092;3.458;2023-03-12T22:24:27;10.60;99.90
21834;DHT22;11079;51.092;3.458;2023-03-12T22:26:56;10.60;99.90
21834;DHT22;11079;51.092;3.458;2023-03-12T22:29:22;10.60;99.90
21834;DHT22;11079;51.092;3.458;2023-03-12T22:31:48;10.60;99.90
21834;DHT22;11079;51.092;3.458;2023-03-12T22:34:17;10.60;99.90
21834;DHT22;11079;51.092;3.458;2023-03-12T22:36:42;10.50;99.90
21834;DHT22;11079;51.092;3.458;2023-03-12T22:39:08;10.50;99.90
21834;DHT22;11079;51.092;3.458;2023-03-12T22:41:37;10.60;99.90
21834;DHT22;11079;51.092;3.458;2023-03-12T22:44:05;10.50;99.90
21834;DHT22;11079;51.092;3.458;2023-03-12T22:46:34;10.50;99.90
21834;DHT22;11079;51.092;3.458;2023-03-12T22:49:29;10.60;99.90
21834;DHT22;11079;51.092;3.458;2023-03-12T22:52:35;10.70;99.90
21834;DHT22;11079;51.092;3.458;2023-03-12T22:55:01;10.60;99.90
21834;DHT22;11079;51.092;3.458;2023-03-12T22:57:27;10.60;99.90
21834;DHT22;11079;51.092;3.458;2023-03-12T22:59:53;10.60;99.90
21834;DHT22;11079;51.092;3.458;2023-03-12T23:02:18;10.60;99.90
21834;DHT22;11079;51.092;3.458;2023-03-12T23:04:44;10.70;99.90
21834;DHT22;11079;51.092;3.458;2023-03-12T23:07:12;10.60;99.90
